createdAt,value
2018-06-03T00:02:24.718Z,100885.52
2018-06-03T00:04:53.104Z,100877.76
2018-06-03T00:07:21.534Z,100885.41
2018-06-03T00:09:49.957Z,100886.44
2018-06-03T00:12:18.327Z,100882.05
2018-06-03T00:14:46.685Z,100882.39
2018-06-03T00:17:15.422Z,100876.09
2018-06-03T00:19:44.036Z,100871.73
2018-06-03T00:22:27.748Z,100865.45
2018-06-03T00:24:56.269Z,100869.68
2018-06-03T00:27:25.194Z,100867.98
2018-06-03T00:29:54.029Z,100863.89
2018-06-03T00:32:22.740Z,100868.47
2018-06-03T00:34:51.403Z,100868.27
2018-06-03T00:37:20.121Z,100865.73
2018-06-03T00:39:48.769Z,100874.26
2018-06-03T00:42:17.452Z,100869.70
2018-06-03T00:44:46.140Z,100878.48
2018-06-03T00:47:14.953Z,100885.82
2018-06-03T00:49:44.492Z,100889.34
2018-06-03T00:52:13.153Z,100892.30
2018-06-03T00:54:41.780Z,100889.11
2018-06-03T00:57:11.417Z,100880.33
2018-06-03T00:59:40.106Z,100878.19
2018-06-03T01:02:08.814Z,100880.17
2018-06-03T01:04:37.456Z,100876.41
2018-06-03T01:07:06.358Z,100880.55
2018-06-03T01:09:35.002Z,100879.24
2018-06-03T01:12:03.677Z,100885.29
2018-06-03T01:14:32.363Z,100883.26
2018-06-03T01:17:01.039Z,100881.25
2018-06-03T01:19:29.707Z,100885.03
2018-06-03T01:21:58.600Z,100885.48
2018-06-03T01:24:27.231Z,100881.94
2018-06-03T01:26:55.924Z,100880.30
2018-06-03T01:29:24.587Z,100877.21
2018-06-03T01:31:53.251Z,100875.79
2018-06-03T01:34:21.886Z,100874.41
2018-06-03T01:36:50.580Z,100879.69
2018-06-03T01:39:19.497Z,100880.48
2018-06-03T01:41:48.201Z,100875.02
2018-06-03T01:44:17.828Z,100874.53
2018-06-03T01:46:48.701Z,100871.47
2018-06-03T01:49:18.717Z,100877.63
2018-06-03T01:51:47.425Z,100873.91
2018-06-03T01:54:16.100Z,100875.38
2018-06-03T01:56:44.752Z,100879.02
2018-06-03T01:59:15.842Z,100871.59
2018-06-03T02:01:46.908Z,100872.47
2018-06-03T02:04:15.593Z,100871.45
2018-06-03T02:06:46.383Z,100872.61
2018-06-03T02:09:15.055Z,100874.83
2018-06-03T02:11:46.139Z,100868.19
2018-06-03T02:14:14.844Z,100874.95
2018-06-03T02:16:43.512Z,100874.83
2018-06-03T02:19:12.207Z,100886.40
2018-06-03T02:21:40.876Z,100880.98
2018-06-03T02:24:09.531Z,100879.77
2018-06-03T02:26:38.164Z,100882.08
2018-06-03T02:29:06.842Z,100884.83
2018-06-03T02:31:36.379Z,100881.33
2018-06-03T02:34:05.060Z,100876.88
2018-06-03T02:36:33.694Z,100875.24
2018-06-03T02:39:02.359Z,100875.31
2018-06-03T02:41:31.053Z,100876.16
2018-06-03T02:43:59.715Z,100875.77
2018-06-03T02:46:30.991Z,100873.23
2018-06-03T02:49:03.649Z,100872.55
2018-06-03T02:51:32.522Z,100870.19
2018-06-03T02:54:01.193Z,100870.38
2018-06-03T02:56:34.905Z,100869.11
2018-06-03T02:59:03.578Z,100867.14
2018-06-03T03:01:32.245Z,100871.65
2018-06-03T03:04:00.914Z,100869.52
2018-06-03T03:06:29.541Z,100870.63
2018-06-03T03:08:58.238Z,100869.58
2018-06-03T03:11:26.921Z,100871.53
2018-06-03T03:13:55.603Z,100875.25
2018-06-03T03:16:24.644Z,100874.95
2018-06-03T03:18:53.297Z,100874.30
2018-06-03T03:21:21.920Z,100870.01
2018-06-03T03:23:50.621Z,100878.66
2018-06-03T03:26:19.331Z,100877.69
2018-06-03T03:28:47.995Z,100873.66
2018-06-03T03:31:17.273Z,100879.45
2018-06-03T03:33:45.934Z,100874.36
2018-06-03T03:36:16.633Z,100876.78
2018-06-03T03:38:45.290Z,100878.00
2018-06-03T03:41:14.853Z,100878.16
2018-06-03T03:43:46.828Z,100879.34
2018-06-03T03:46:15.488Z,100884.94
2018-06-03T03:48:44.149Z,100883.84
2018-06-03T03:51:12.878Z,100886.69
2018-06-03T03:53:41.564Z,100878.42
2018-06-03T03:56:10.287Z,100888.40
2018-06-03T03:58:38.903Z,100888.08
2018-06-03T04:01:07.587Z,100882.55
2018-06-03T04:03:38.595Z,100879.68
2018-06-03T04:06:07.266Z,100876.38
2018-06-03T04:08:39.221Z,100883.80
2018-06-03T04:11:09.950Z,100885.90
2018-06-03T04:13:38.578Z,100888.69
2018-06-03T04:16:07.287Z,100890.48
2018-06-03T04:18:41.429Z,100890.73
2018-06-03T04:21:14.150Z,100897.13
2018-06-03T04:23:43.149Z,100893.00
2018-06-03T04:26:11.905Z,100894.44
2018-06-03T04:28:43.222Z,100891.75
2018-06-03T04:31:11.927Z,100894.30
2018-06-03T04:33:40.576Z,100897.16
2018-06-03T04:36:09.257Z,100905.63
2018-06-03T04:38:38.872Z,100905.48
2018-06-03T04:41:07.560Z,100899.02
2018-06-03T04:43:36.208Z,100899.50
2018-06-03T04:46:04.891Z,100898.14
2018-06-03T04:48:33.565Z,100896.56
2018-06-03T04:51:02.251Z,100894.81
2018-06-03T04:53:33.286Z,100905.31
2018-06-03T04:56:05.428Z,100898.39
2018-06-03T04:58:34.073Z,100903.05
2018-06-03T05:01:02.736Z,100900.28
2018-06-03T05:03:48.021Z,100897.89
2018-06-03T05:06:24.897Z,100898.79
2018-06-03T05:09:03.775Z,100900.03
2018-06-03T05:11:48.393Z,100899.16
2018-06-03T05:14:18.637Z,100905.94
2018-06-03T05:16:49.768Z,100898.13
2018-06-03T05:19:18.440Z,100898.16
2018-06-03T05:21:51.769Z,100904.84
2018-06-03T05:24:20.799Z,100904.48
2018-06-03T05:26:49.682Z,100901.70
2018-06-03T05:29:18.841Z,100904.66
2018-06-03T05:31:47.558Z,100900.81
2018-06-03T05:34:16.217Z,100897.99
2018-06-03T05:36:45.481Z,100904.08
2018-06-03T05:39:16.117Z,100902.72
2018-06-03T05:41:44.777Z,100909.96
2018-06-03T05:44:15.563Z,100905.22
2018-06-03T05:46:45.424Z,100910.59
2018-06-03T05:52:13.749Z,100903.00
2018-06-03T05:54:46.324Z,100914.98
2018-06-03T05:57:15.007Z,100908.31
2018-06-03T05:59:45.493Z,100911.02
2018-06-03T06:02:14.951Z,100906.73
2018-06-03T06:04:43.607Z,100910.25
2018-06-03T06:07:14.585Z,100904.31
2018-06-03T06:09:51.034Z,100907.87
2018-06-03T06:12:30.083Z,100909.00
2018-06-03T06:15:05.407Z,100914.39
2018-06-03T06:20:23.606Z,100913.62
2018-06-03T06:23:00.033Z,100919.95
2018-06-03T06:25:28.674Z,100926.95
2018-06-03T06:27:57.339Z,100928.58
2018-06-03T06:30:26.982Z,100925.08
2018-06-03T06:35:46.094Z,100940.42
2018-06-03T06:38:18.500Z,100936.45
2018-06-03T06:40:56.312Z,100934.87
2018-06-03T06:43:25.303Z,100931.05
2018-06-03T06:45:54.035Z,100936.51
2018-06-03T06:48:24.347Z,100936.95
2018-06-03T06:51:06.782Z,100935.59
2018-06-03T06:53:35.455Z,100944.28
2018-06-03T06:56:05.058Z,100939.70
2018-06-03T06:58:41.419Z,100940.97
2018-06-03T07:01:12.179Z,100940.04
2018-06-03T07:03:41.515Z,100942.03
2018-06-03T07:06:10.159Z,100945.17
2018-06-03T07:08:38.865Z,100944.86
2018-06-03T07:11:16.645Z,100936.06
2018-06-03T07:16:33.023Z,100943.47
2018-06-03T07:19:01.736Z,100941.66
2018-06-03T07:21:47.983Z,100947.99
2018-06-03T07:24:24.143Z,100946.83
2018-06-03T07:26:52.784Z,100952.66
2018-06-03T07:29:22.689Z,100951.34
2018-06-03T07:31:51.310Z,100946.89
2018-06-03T07:34:23.185Z,100942.91
2018-06-03T07:36:51.835Z,100936.50
2018-06-03T07:39:20.522Z,100944.91
2018-06-03T07:41:52.194Z,100945.16
2018-06-03T07:47:09.086Z,100934.92
2018-06-03T07:49:38.036Z,100939.17
2018-06-03T07:52:06.691Z,100935.60
2018-06-03T07:54:35.411Z,100936.98
2018-06-03T07:57:04.105Z,100940.12
2018-06-03T07:59:34.205Z,100938.80
2018-06-03T08:02:04.486Z,100938.67
2018-06-03T08:04:33.503Z,100933.27
2018-06-03T08:09:52.342Z,100943.77
2018-06-03T08:12:36.524Z,100936.31
2018-06-03T08:15:06.861Z,100935.06
2018-06-03T08:17:35.482Z,100931.59
2018-06-03T08:20:06.193Z,100935.47
2018-06-03T08:22:37.888Z,100933.77
2018-06-03T08:25:07.991Z,100937.36
2018-06-03T08:27:36.772Z,100931.67
2018-06-03T08:30:23.214Z,100928.96
2018-06-03T08:33:00.342Z,100930.64
2018-06-03T08:35:30.521Z,100927.75
2018-06-03T08:49:08.385Z,100922.67
2018-06-03T08:51:37.258Z,100922.14
2018-06-03T08:59:42.785Z,100932.69
2018-06-03T09:02:11.963Z,100931.98
2018-06-03T09:04:40.718Z,100936.77
2018-06-03T09:07:11.228Z,100938.87
2018-06-03T09:09:46.836Z,100938.87
2018-06-03T09:12:23.857Z,100938.59
2018-06-03T09:14:55.370Z,100943.14
2018-06-03T09:17:26.479Z,100942.58
2018-06-03T09:20:00.742Z,100941.99
2018-06-03T09:22:37.644Z,100942.73
2018-06-03T09:25:07.391Z,100940.84
2018-06-03T09:27:36.664Z,100934.38
2018-06-03T09:32:54.449Z,100929.97
2018-06-03T09:35:27.174Z,100925.98
2018-06-03T09:37:56.084Z,100926.38
2018-06-03T09:40:25.059Z,100926.62
2018-06-03T09:43:01.372Z,100928.72
2018-06-03T09:45:32.394Z,100928.63
2018-06-03T09:48:08.461Z,100927.28
2018-06-03T09:50:41.609Z,100927.75
2018-06-03T09:53:14.857Z,100925.88
2018-06-03T09:55:50.872Z,100925.61
2018-06-03T09:58:20.753Z,100922.09
2018-06-03T10:00:50.177Z,100919.59
2018-06-03T10:03:21.731Z,100923.92
2018-06-03T10:05:53.285Z,100923.50
2018-06-03T10:08:32.806Z,100924.05
2018-06-03T10:11:03.363Z,100915.04
2018-06-03T10:13:32.271Z,100919.92
2018-06-03T10:16:01.140Z,100918.94
2018-06-03T10:18:32.903Z,100909.72
2018-06-03T10:21:03.196Z,100913.24
2018-06-03T10:23:32.272Z,100916.53
2018-06-03T10:26:08.491Z,100913.69
2018-06-03T10:28:40.586Z,100912.31
2018-06-03T10:31:09.826Z,100908.08
2018-06-03T10:33:39.652Z,100901.87
2018-06-03T10:36:08.704Z,100895.28
2018-06-03T10:38:41.347Z,100906.30
2018-06-03T10:41:18.622Z,100902.62
2018-06-03T10:43:53.212Z,100902.86
2018-06-03T10:46:22.851Z,100902.24
2018-06-03T10:48:51.570Z,100908.20
2018-06-03T10:51:21.162Z,100904.78
2018-06-03T10:53:52.839Z,100903.67
2018-06-03T10:56:22.089Z,100908.37
2018-06-03T10:58:55.248Z,100897.87
2018-06-03T11:01:23.890Z,100899.38
2018-06-03T11:03:54.917Z,100895.17
2018-06-03T11:06:24.867Z,100896.19
2018-06-03T11:08:54.039Z,100889.05
2018-06-03T11:11:24.770Z,100878.27
2018-06-03T11:13:54.416Z,100874.12
2018-06-03T11:16:24.591Z,100877.02
2018-06-03T11:21:40.915Z,100874.54
2018-06-03T11:24:10.110Z,100871.98
2018-06-03T11:26:39.726Z,100866.58
2018-06-03T11:29:09.574Z,100864.27
2018-06-03T11:31:38.253Z,100865.67
2018-06-03T11:34:07.410Z,100863.78
2018-06-03T11:36:36.388Z,100855.68
2018-06-03T11:39:10.597Z,100848.95
2018-06-03T11:41:39.209Z,100851.29
2018-06-03T11:44:08.892Z,100845.61
2018-06-03T11:46:38.088Z,100844.34
2018-06-03T11:49:06.777Z,100846.30
2018-06-03T11:51:35.430Z,100841.17
2018-06-03T11:54:04.032Z,100840.91
2018-06-03T11:57:00.297Z,100833.97
2018-06-03T11:59:43.218Z,100824.54
2018-06-03T12:02:11.850Z,100825.72
2018-06-03T12:04:40.547Z,100825.92
2018-06-03T12:07:09.365Z,100822.23
2018-06-03T12:09:37.994Z,100818.56
2018-06-03T12:12:06.681Z,100820.36
2018-06-03T12:14:38.197Z,100816.44
2018-06-03T12:17:09.585Z,100820.11
2018-06-03T12:19:41.694Z,100819.73
2018-06-03T12:22:12.895Z,100820.88
2018-06-03T12:24:43.902Z,100817.20
2018-06-03T12:27:20.666Z,100816.61
2018-06-03T12:29:49.572Z,100810.74
2018-06-03T12:32:19.089Z,100813.56
2018-06-03T12:34:47.739Z,100811.44
2018-06-03T12:37:16.443Z,100802.63
2018-06-03T12:39:47.084Z,100801.59
2018-06-03T12:42:23.710Z,100799.16
2018-06-03T12:44:54.186Z,100805.43
2018-06-03T12:47:33.629Z,100801.21
2018-06-03T12:50:11.931Z,100793.89
2018-06-03T12:52:42.979Z,100795.91
2018-06-03T12:55:12.158Z,100789.69
2018-06-03T13:03:23.910Z,100780.88
2018-06-03T13:05:52.961Z,100788.87
2018-06-03T13:11:11.487Z,100781.71
2018-06-03T13:13:45.360Z,100776.84
2018-06-03T13:16:16.763Z,100771.11
2018-06-03T13:18:48.427Z,100770.45
2018-06-03T13:21:25.633Z,100758.10
2018-06-03T13:23:57.844Z,100758.91
2018-06-03T13:26:31.155Z,100758.30
2018-06-03T13:29:05.439Z,100750.33
2018-06-03T13:42:52.222Z,100746.28
2018-06-03T13:45:21.197Z,100744.52
2018-06-03T13:53:30.809Z,100727.23
2018-06-03T14:01:51.645Z,100717.10
2018-06-03T14:07:12.230Z,100706.67
2018-06-03T14:12:30.020Z,100710.16
2018-06-03T14:17:49.773Z,100702.62
2018-06-03T14:25:59.597Z,100697.48
2018-06-03T14:34:05.803Z,100685.82
2018-06-03T14:42:23.327Z,100675.30
2018-06-03T14:44:55.123Z,100685.55
2018-06-03T14:47:33.917Z,100682.31
2018-06-03T14:52:56.008Z,100674.23
2018-06-03T15:09:34.746Z,100656.67
2018-06-03T15:12:11.889Z,100649.80
2018-06-03T15:14:45.139Z,100656.55
2018-06-03T15:17:17.666Z,100660.05
2018-06-03T15:34:07.486Z,100660.11
2018-06-03T15:36:46.284Z,100657.44
2018-06-03T15:44:53.647Z,100654.44
2018-06-03T15:47:23.427Z,100656.78
2018-06-03T15:52:53.658Z,100649.76
2018-06-03T15:58:11.916Z,100644.50
2018-06-03T16:00:41.641Z,100641.42
2018-06-03T16:03:16.143Z,100644.49
2018-06-03T16:05:46.932Z,100637.11
2018-06-03T16:08:16.197Z,100633.01
2018-06-03T16:10:45.245Z,100631.98
2018-06-03T16:13:17.160Z,100624.84
2018-06-03T16:15:55.200Z,100624.94
2018-06-03T16:18:24.152Z,100623.22
2018-06-03T16:20:53.337Z,100620.48
2018-06-03T16:23:24.652Z,100617.90
2018-06-03T16:28:40.940Z,100613.41
2018-06-03T16:31:09.584Z,100604.61
2018-06-03T16:33:39.711Z,100602.20
2018-06-03T16:36:10.264Z,100602.61
2018-06-03T16:38:54.359Z,100605.91
2018-06-03T16:41:23.980Z,100596.52
2018-06-03T16:46:57.452Z,100593.05
2018-06-03T16:49:29.781Z,100589.36
2018-06-03T16:54:46.708Z,100583.91
2018-06-03T16:57:15.382Z,100594.50
2018-06-03T17:02:37.048Z,100591.64
2018-06-03T17:05:21.011Z,100581.08
2018-06-03T17:07:50.760Z,100586.95
2018-06-03T17:10:22.208Z,100583.20
2018-06-03T17:18:30.034Z,100574.66
2018-06-03T17:26:34.758Z,100572.37
2018-06-03T17:29:18.999Z,100574.06
2018-06-03T17:31:51.881Z,100573.75
2018-06-03T17:34:28.820Z,100573.47
2018-06-03T17:36:57.722Z,100563.64
2018-06-03T17:39:28.085Z,100565.46
2018-06-03T17:41:59.548Z,100567.63
2018-06-03T17:44:28.396Z,100565.39
2018-06-03T17:46:58.612Z,100566.92
2018-06-03T17:49:27.325Z,100565.21
2018-06-03T17:51:55.989Z,100560.73
2018-06-03T17:54:25.069Z,100560.93
2018-06-03T18:02:37.283Z,100558.06
2018-06-03T18:05:07.496Z,100552.73
2018-06-03T18:13:25.474Z,100557.05
2018-06-03T18:15:56.462Z,100552.27
2018-06-03T18:21:20.581Z,100544.60
2018-06-03T18:23:58.641Z,100545.73
2018-06-03T18:29:21.223Z,100550.62
2018-06-03T18:54:11.098Z,100549.45
2018-06-03T18:56:48.762Z,100541.17
2018-06-03T18:59:29.528Z,100536.74
2018-06-03T19:04:46.760Z,100542.24
2018-06-03T19:07:17.960Z,100539.16
2018-06-03T19:09:49.015Z,100550.39
2018-06-03T19:20:44.714Z,100559.09
2018-06-03T19:23:13.806Z,100562.92
2018-06-03T19:25:42.513Z,100565.87
2018-06-03T19:28:11.223Z,100567.22
2018-06-03T19:30:50.214Z,100565.61
2018-06-03T19:33:18.938Z,100566.70
2018-06-03T19:35:47.569Z,100577.84
2018-06-03T19:38:18.692Z,100577.48
2018-06-03T19:40:54.079Z,100576.75
2018-06-03T19:43:22.685Z,100578.80
2018-06-03T19:45:53.437Z,100576.52
2018-06-03T19:48:22.138Z,100581.17
2018-06-03T19:50:50.860Z,100578.22
2018-06-03T19:53:29.402Z,100583.41
2018-06-03T19:55:58.135Z,100577.28
2018-06-03T19:58:26.962Z,100577.41
2018-06-03T20:03:43.785Z,100579.44
2018-06-03T20:06:13.838Z,100572.47
2018-06-03T20:08:42.465Z,100578.47
2018-06-03T20:11:13.177Z,100586.35
2018-06-03T20:13:41.804Z,100588.25
2018-06-03T20:16:12.440Z,100583.48
2018-06-03T20:18:41.084Z,100585.66
2018-06-03T20:21:26.876Z,100589.01
2018-06-03T20:23:56.931Z,100586.90
2018-06-03T20:26:26.025Z,100582.78
2018-06-03T20:28:54.803Z,100587.98
2018-06-03T20:31:23.658Z,100590.39
2018-06-03T20:33:52.761Z,100593.02
2018-06-03T20:36:23.224Z,100587.00
2018-06-03T20:38:55.944Z,100595.41
2018-06-03T20:41:26.929Z,100602.56
2018-06-03T20:43:57.467Z,100600.20
2018-06-03T20:46:27.188Z,100601.68
2018-06-03T20:54:34.372Z,100600.70
2018-06-03T20:57:03.104Z,100602.61
2018-06-03T21:02:24.307Z,100603.58
2018-06-03T21:04:53.233Z,100601.70
2018-06-03T21:07:29.597Z,100601.59
2018-06-03T21:09:59.904Z,100605.95
2018-06-03T21:12:31.957Z,100607.25
2018-06-03T21:15:01.830Z,100604.48
2018-06-03T21:17:35.946Z,100607.24
2018-06-03T21:20:05.024Z,100602.17
2018-06-03T21:22:33.909Z,100604.87
2018-06-03T21:25:04.192Z,100603.59
2018-06-03T21:27:32.911Z,100600.08
2018-06-03T21:30:21.194Z,100600.30
2018-06-03T21:32:50.483Z,100609.66
2018-06-03T21:35:22.322Z,100607.61
2018-06-03T21:37:51.194Z,100606.20
2018-06-03T21:40:20.317Z,100611.71
2018-06-03T21:42:50.071Z,100596.30
2018-06-03T21:45:19.022Z,100604.06
2018-06-03T21:47:51.156Z,100602.58
2018-06-03T21:50:20.315Z,100602.79
2018-06-03T21:52:51.295Z,100599.53
2018-06-03T21:55:20.243Z,100598.63
2018-06-03T21:57:49.253Z,100597.66
2018-06-03T22:00:23.796Z,100602.72
2018-06-03T22:02:56.000Z,100593.53
2018-06-03T22:05:34.349Z,100598.56
2018-06-03T22:08:03.392Z,100596.66
2018-06-03T22:10:32.502Z,100598.22
2018-06-03T22:13:04.922Z,100599.55
2018-06-03T22:15:35.825Z,100597.41
2018-06-03T22:18:04.685Z,100600.54
2018-06-03T22:20:33.596Z,100597.48
2018-06-03T22:23:07.464Z,100601.45
2018-06-03T22:25:36.647Z,100602.17
2018-06-03T22:28:06.235Z,100602.33
2018-06-03T22:30:35.619Z,100609.79
2018-06-03T22:35:53.499Z,100610.69
2018-06-03T22:38:22.105Z,100612.92
2018-06-03T22:40:51.301Z,100612.12
2018-06-03T22:43:23.172Z,100605.09
2018-06-03T22:45:52.003Z,100607.47
2018-06-03T22:48:23.595Z,100604.86
2018-06-03T22:56:31.950Z,100601.75
2018-06-03T22:59:14.970Z,100607.19
2018-06-03T23:01:46.175Z,100603.13
2018-06-03T23:04:20.191Z,100600.62
2018-06-03T23:06:55.749Z,100600.30
2018-06-03T23:09:44.010Z,100598.67
2018-06-03T23:12:18.971Z,100593.61
2018-06-03T23:14:48.525Z,100602.11
2018-06-03T23:20:06.813Z,100596.77
2018-06-03T23:22:43.253Z,100589.79
2018-06-03T23:25:12.158Z,100593.80
2018-06-03T23:27:42.777Z,100593.08
2018-06-03T23:30:14.829Z,100591.52
2018-06-03T23:32:45.596Z,100586.95
2018-06-03T23:35:15.418Z,100580.04
2018-06-03T23:51:57.747Z,100574.03
